KPHT

Henry County Airport

Paris, Tennessee, USA
METAR KPHT 100555Z AUTO 36007KT 10SM CLR M01/M04 A3019 RMK A01
Observed Flight Rules
Dec-10 @ 05:55 UTC (34 minutes ago) Visual Flight Rules
Wind Visibility Clouds
360° at 7 knots 10 miles
  • Clear skies
Temperatures Readings
Current -1°C / 30°F
Dewpoint -4°C / 25°F
Humidity 80%
Altimeter 30.19" Hg
Pressure 1022 hPa
Elevation 177
METAR KPHT 100555Z AUTO 36007KT 10SM CLR M01/M04 A3019 RMK A01
Observed Flight Rules
Dec-10 @ 05:55 UTC
(34 minutes ago)
VFR
Wind Visibility
360° at 7 knots 10 miles
Clouds
  • Clear skies
Temperature Dewpoint
-1°C / 30°F -4°C / 25°F
Humidity Altimeter Pressure
80% 30.19" Hg 1022 hPa